sensor_id;sensor_type;location;lat;lon;timestamp;temperature;humidity
5554;DHT22;2800;49.528;8.666;2023-06-14T00:00:11;19.50;99.90
5554;DHT22;2800;49.528;8.666;2023-06-14T00:02:39;19.40;99.90
5554;DHT22;2800;49.528;8.666;2023-06-14T00:05:08;19.50;99.90
5554;DHT22;2800;49.528;8.666;2023-06-14T00:07:40;19.60;99.90
5554;DHT22;2800;49.528;8.666;2023-06-14T00:10:11;19.50;99.90
5554;DHT22;2800;49.528;8.666;2023-06-14T00:12:37;19.50;99.90
5554;DHT22;2800;49.528;8.666;2023-06-14T00:15:03;19.60;99.90
5554;DHT22;2800;49.528;8.666;2023-06-14T00:17:29;19.60;99.90
5554;DHT22;2800;49.528;8.666;2023-06-14T00:19:56;19.70;99.90
5554;DHT22;2800;49.528;8.666;2023-06-14T00:22:22;19.80;99.90
5554;DHT22;2800;49.528;8.666;2023-06-14T00:24:50;19.80;99.90
5554;DHT22;2800;49.528;8.666;2023-06-14T00:27:16;19.80;99.90
5554;DHT22;2800;49.528;8.666;2023-06-14T00:29:41;19.70;99.90
5554;DHT22;2800;49.528;8.666;2023-06-14T00:32:07;19.80;99.90
5554;DHT22;2800;49.528;8.666;2023-06-14T00:34:33;19.80;99.90
5554;DHT22;2800;49.528;8.666;2023-06-14T00:36:59;19.80;99.90
5554;DHT22;2800;49.528;8.666;2023-06-14T00:39:25;19.70;99.90
5554;DHT22;2800;49.528;8.666;2023-06-14T00:41:50;19.50;99.90
5554;DHT22;2800;49.528;8.666;2023-06-14T00:44:16;19.50;99.90
5554;DHT22;2800;49.528;8.666;2023-06-14T00:46:42;19.40;99.90
5554;DHT22;2800;49.528;8.666;2023-06-14T00:49:08;19.40;99.90
5554;DHT22;2800;49.528;8.666;2023-06-14T00:51:34;19.40;99.90
5554;DHT22;2800;49.528;8.666;2023-06-14T00:53:59;19.30;99.90
5554;DHT22;2800;49.528;8.666;2023-06-14T00:56:26;19.30;99.90
5554;DHT22;2800;49.528;8.666;2023-06-14T00:58:53;19.30;99.90
5554;DHT22;2800;49.528;8.666;2023-06-14T01:01:18;19.30;99.90
5554;DHT22;2800;49.528;8.666;2023-06-14T01:03:44;19.30;99.90
5554;DHT22;2800;49.528;8.666;2023-06-14T01:09:32;19.40;99.90
5554;DHT22;2800;49.528;8.666;2023-06-14T01:12:07;19.30;99.90
5554;DHT22;2800;49.528;8.666;2023-06-14T01:14:34;19.30;99.90
5554;DHT22;2800;49.528;8.666;2023-06-14T01:17:01;19.30;99.90
5554;DHT22;2800;49.528;8.666;2023-06-14T01:19:28;19.30;99.90
5554;DHT22;2800;49.528;8.666;2023-06-14T01:21:55;19.40;99.90
5554;DHT22;2800;49.528;8.666;2023-06-14T01:24:21;19.40;99.90
5554;DHT22;2800;49.528;8.666;2023-06-14T01:26:53;19.40;99.90
5554;DHT22;2800;49.528;8.666;2023-06-14T01:29:22;18.50;99.90
5554;DHT22;2800;49.528;8.666;2023-06-14T01:31:48;19.50;99.90
5554;DHT22;2800;49.528;8.666;2023-06-14T01:34:15;19.50;99.90
5554;DHT22;2800;49.528;8.666;2023-06-14T01:36:41;19.40;99.90
5554;DHT22;2800;49.528;8.666;2023-06-14T01:39:08;19.40;99.90
5554;DHT22;2800;49.528;8.666;2023-06-14T01:41:35;19.40;99.90
5554;DHT22;2800;49.528;8.666;2023-06-14T01:44:01;19.40;99.90
5554;DHT22;2800;49.528;8.666;2023-06-14T01:46:27;19.40;99.90
5554;DHT22;2800;49.528;8.666;2023-06-14T01:48:52;19.40;99.90
5554;DHT22;2800;49.528;8.666;2023-06-14T01:51:18;19.30;99.90
5554;DHT22;2800;49.528;8.666;2023-06-14T01:53:43;19.30;99.90
5554;DHT22;2800;49.528;8.666;2023-06-14T01:56:09;19.30;99.90
5554;DHT22;2800;49.528;8.666;2023-06-14T01:58:34;19.30;99.90
5554;DHT22;2800;49.528;8.666;2023-06-14T02:01:00;19.30;99.90
5554;DHT22;2800;49.528;8.666;2023-06-14T02:03:26;19.20;99.90
5554;DHT22;2800;49.528;8.666;2023-06-14T02:05:52;19.10;99.90
5554;DHT22;2800;49.528;8.666;2023-06-14T02:08:18;19.10;99.90
5554;DHT22;2800;49.528;8.666;2023-06-14T02:10:43;18.90;99.90
5554;DHT22;2800;49.528;8.666;2023-06-14T02:13:09;18.90;99.90
5554;DHT22;2800;49.528;8.666;2023-06-14T02:15:35;18.90;99.90
5554;DHT22;2800;49.528;8.666;2023-06-14T02:18:04;19.00;99.90
5554;DHT22;2800;49.528;8.666;2023-06-14T02:20:30;19.00;99.90
5554;DHT22;2800;49.528;8.666;2023-06-14T02:22:55;19.00;99.90
5554;DHT22;2800;49.528;8.666;2023-06-14T02:25:21;18.90;99.90
5554;DHT22;2800;49.528;8.666;2023-06-14T02:27:46;19.00;99.90
5554;DHT22;2800;49.528;8.666;2023-06-14T02:30:12;18.90;99.90
5554;DHT22;2800;49.528;8.666;2023-06-14T02:32:38;18.90;99.90
5554;DHT22;2800;49.528;8.666;2023-06-14T02:35:04;18.70;99.90
5554;DHT22;2800;49.528;8.666;2023-06-14T02:37:30;18.50;99.90
5554;DHT22;2800;49.528;8.666;2023-06-14T02:39:56;18.30;99.90
5554;DHT22;2800;49.528;8.666;2023-06-14T02:42:21;18.20;99.90
5554;DHT22;2800;49.528;8.666;2023-06-14T02:44:47;18.20;99.90
5554;DHT22;2800;49.528;8.666;2023-06-14T02:47:17;18.20;99.90
5554;DHT22;2800;49.528;8.666;2023-06-14T02:49:43;18.20;99.90
5554;DHT22;2800;49.528;8.666;2023-06-14T02:52:08;18.20;99.90
5554;DHT22;2800;49.528;8.666;2023-06-14T02:54:34;18.20;99.90
5554;DHT22;2800;49.528;8.666;2023-06-14T02:57:00;18.30;99.90
5554;DHT22;2800;49.528;8.666;2023-06-14T02:59:25;18.20;99.90
5554;DHT22;2800;49.528;8.666;2023-06-14T03:01:51;18.20;99.90
5554;DHT22;2800;49.528;8.666;2023-06-14T03:04:17;18.20;99.90
5554;DHT22;2800;49.528;8.666;2023-06-14T03:06:42;18.10;99.90
5554;DHT22;2800;49.528;8.666;2023-06-14T03:09:09;18.10;99.90
5554;DHT22;2800;49.528;8.666;2023-06-14T03:11:35;18.10;99.90
5554;DHT22;2800;49.528;8.666;2023-06-14T03:14:01;18.10;99.90
5554;DHT22;2800;49.528;8.666;2023-06-14T03:16:29;18.10;99.90
5554;DHT22;2800;49.528;8.666;2023-06-14T03:18:55;18.10;99.90
5554;DHT22;2800;49.528;8.666;2023-06-14T03:21:20;18.10;99.90
5554;DHT22;2800;49.528;8.666;2023-06-14T03:23:46;18.10;99.90
5554;DHT22;2800;49.528;8.666;2023-06-14T03:26:12;18.10;99.90
5554;DHT22;2800;49.528;8.666;2023-06-14T03:28:39;18.00;99.90
5554;DHT22;2800;49.528;8.666;2023-06-14T03:31:05;17.90;99.90
5554;DHT22;2800;49.528;8.666;2023-06-14T03:33:31;17.90;99.90
5554;DHT22;2800;49.528;8.666;2023-06-14T03:35:56;17.80;99.90
5554;DHT22;2800;49.528;8.666;2023-06-14T03:38:22;17.80;99.90
5554;DHT22;2800;49.528;8.666;2023-06-14T03:40:48;17.80;99.90
5554;DHT22;2800;49.528;8.666;2023-06-14T03:43:14;17.80;99.90
5554;DHT22;2800;49.528;8.666;2023-06-14T03:45:39;17.70;99.90
5554;DHT22;2800;49.528;8.666;2023-06-14T03:48:05;17.80;99.90
5554;DHT22;2800;49.528;8.666;2023-06-14T03:50:32;17.80;99.90
5554;DHT22;2800;49.528;8.666;2023-06-14T03:52:58;17.70;99.90
5554;DHT22;2800;49.528;8.666;2023-06-14T03:55:23;17.70;99.90
5554;DHT22;2800;49.528;8.666;2023-06-14T03:57:51;17.70;99.90
5554;DHT22;2800;49.528;8.666;2023-06-14T04:00:17;17.60;99.90
5554;DHT22;2800;49.528;8.666;2023-06-14T04:02:43;17.70;99.90
5554;DHT22;2800;49.528;8.666;2023-06-14T04:05:09;17.70;99.90
5554;DHT22;2800;49.528;8.666;2023-06-14T04:07:35;17.80;99.90
5554;DHT22;2800;49.528;8.666;2023-06-14T04:10:07;17.90;99.90
5554;DHT22;2800;49.528;8.666;2023-06-14T04:12:33;17.80;99.90
5554;DHT22;2800;49.528;8.666;2023-06-14T04:14:59;18.00;99.90
5554;DHT22;2800;49.528;8.666;2023-06-14T04:17:24;17.90;99.90
5554;DHT22;2800;49.528;8.666;2023-06-14T04:19:50;17.90;99.90
5554;DHT22;2800;49.528;8.666;2023-06-14T04:22:15;17.90;99.90
5554;DHT22;2800;49.528;8.666;2023-06-14T04:24:41;17.90;99.90
5554;DHT22;2800;49.528;8.666;2023-06-14T04:27:07;17.80;99.90
5554;DHT22;2800;49.528;8.666;2023-06-14T04:29:33;17.80;99.90
5554;DHT22;2800;49.528;8.666;2023-06-14T04:31:58;17.80;99.90
5554;DHT22;2800;49.528;8.666;2023-06-14T04:34:28;17.80;99.90
5554;DHT22;2800;49.528;8.666;2023-06-14T04:36:59;17.70;99.90
5554;DHT22;2800;49.528;8.666;2023-06-14T04:39:27;17.70;99.90
5554;DHT22;2800;49.528;8.666;2023-06-14T04:41:53;17.60;99.90
5554;DHT22;2800;49.528;8.666;2023-06-14T04:44:23;17.60;99.90
5554;DHT22;2800;49.528;8.666;2023-06-14T04:46:56;17.50;99.90
5554;DHT22;2800;49.528;8.666;2023-06-14T04:49:21;17.60;99.90
5554;DHT22;2800;49.528;8.666;2023-06-14T04:51:48;17.60;99.90
5554;DHT22;2800;49.528;8.666;2023-06-14T04:54:16;17.60;99.90
5554;DHT22;2800;49.528;8.666;2023-06-14T04:56:44;17.70;99.90
5554;DHT22;2800;49.528;8.666;2023-06-14T04:59:10;17.70;99.90
5554;DHT22;2800;49.528;8.666;2023-06-14T05:01:40;17.70;99.90
5554;DHT22;2800;49.528;8.666;2023-06-14T05:04:06;17.70;99.90
5554;DHT22;2800;49.528;8.666;2023-06-14T05:06:31;17.70;99.90
5554;DHT22;2800;49.528;8.666;2023-06-14T05:08:57;17.70;99.90
5554;DHT22;2800;49.528;8.666;2023-06-14T05:11:22;17.70;99.90
5554;DHT22;2800;49.528;8.666;2023-06-14T05:13:49;17.70;99.90
5554;DHT22;2800;49.528;8.666;2023-06-14T05:16:15;17.80;99.90
5554;DHT22;2800;49.528;8.666;2023-06-14T05:18:42;17.80;99.90
5554;DHT22;2800;49.528;8.666;2023-06-14T05:21:07;17.90;99.90
5554;DHT22;2800;49.528;8.666;2023-06-14T05:23:34;17.90;99.90
5554;DHT22;2800;49.528;8.666;2023-06-14T05:25:59;17.90;99.90
5554;DHT22;2800;49.528;8.666;2023-06-14T05:28:25;17.90;99.90
5554;DHT22;2800;49.528;8.666;2023-06-14T05:30:51;17.90;99.90
5554;DHT22;2800;49.528;8.666;2023-06-14T05:33:16;18.00;99.90
5554;DHT22;2800;49.528;8.666;2023-06-14T05:35:42;18.10;99.90
5554;DHT22;2800;49.528;8.666;2023-06-14T05:38:07;18.20;99.90
5554;DHT22;2800;49.528;8.666;2023-06-14T05:40:33;18.10;99.90
5554;DHT22;2800;49.528;8.666;2023-06-14T05:42:59;18.00;99.90
5554;DHT22;2800;49.528;8.666;2023-06-14T05:45:24;18.20;99.90
5554;DHT22;2800;49.528;8.666;2023-06-14T05:47:50;18.20;99.90
5554;DHT22;2800;49.528;8.666;2023-06-14T05:50:16;18.10;99.90
5554;DHT22;2800;49.528;8.666;2023-06-14T05:52:42;18.20;99.90
5554;DHT22;2800;49.528;8.666;2023-06-14T05:55:07;18.20;99.90
5554;DHT22;2800;49.528;8.666;2023-06-14T05:57:33;18.20;99.90
5554;DHT22;2800;49.528;8.666;2023-06-14T05:59:59;18.20;99.90
5554;DHT22;2800;49.528;8.666;2023-06-14T06:02:24;18.40;99.90
5554;DHT22;2800;49.528;8.666;2023-06-14T06:04:50;18.40;99.90
5554;DHT22;2800;49.528;8.666;2023-06-14T06:07:15;18.50;99.90
5554;DHT22;2800;49.528;8.666;2023-06-14T06:09:41;18.60;99.90
5554;DHT22;2800;49.528;8.666;2023-06-14T06:12:07;18.60;99.90
5554;DHT22;2800;49.528;8.666;2023-06-14T06:14:32;18.70;99.90
5554;DHT22;2800;49.528;8.666;2023-06-14T06:16:58;18.80;99.90
5554;DHT22;2800;49.528;8.666;2023-06-14T06:19:24;18.90;99.90
5554;DHT22;2800;49.528;8.666;2023-06-14T06:21:50;19.00;99.90
5554;DHT22;2800;49.528;8.666;2023-06-14T06:24:15;19.20;99.90
5554;DHT22;2800;49.528;8.666;2023-06-14T06:26:41;19.20;99.90
5554;DHT22;2800;49.528;8.666;2023-06-14T06:29:07;19.40;99.90
5554;DHT22;2800;49.528;8.666;2023-06-14T06:31:32;19.60;99.90
5554;DHT22;2800;49.528;8.666;2023-06-14T06:33:58;19.90;99.90
5554;DHT22;2800;49.528;8.666;2023-06-14T06:36:24;20.20;99.90
5554;DHT22;2800;49.528;8.666;2023-06-14T06:38:50;20.30;99.90
5554;DHT22;2800;49.528;8.666;2023-06-14T06:41:15;20.20;99.90
5554;DHT22;2800;49.528;8.666;2023-06-14T06:43:41;20.30;99.90
5554;DHT22;2800;49.528;8.666;2023-06-14T06:46:07;20.50;99.90
5554;DHT22;2800;49.528;8.666;2023-06-14T06:48:32;21.00;99.90
5554;DHT22;2800;49.528;8.666;2023-06-14T06:50:57;21.10;99.90
5554;DHT22;2800;49.528;8.666;2023-06-14T06:53:23;21.70;99.90
5554;DHT22;2800;49.528;8.666;2023-06-14T06:55:48;21.80;99.90
5554;DHT22;2800;49.528;8.666;2023-06-14T06:58:14;22.20;99.90
5554;DHT22;2800;49.528;8.666;2023-06-14T07:00:39;22.10;99.90
5554;DHT22;2800;49.528;8.666;2023-06-14T07:03:06;21.80;99.90
5554;DHT22;2800;49.528;8.666;2023-06-14T07:05:31;22.00;99.90
5554;DHT22;2800;49.528;8.666;2023-06-14T07:07:57;21.60;99.90
5554;DHT22;2800;49.528;8.666;2023-06-14T07:10:23;21.60;99.90
5554;DHT22;2800;49.528;8.666;2023-06-14T07:12:50;22.10;99.90
5554;DHT22;2800;49.528;8.666;2023-06-14T07:15:15;22.00;99.90
5554;DHT22;2800;49.528;8.666;2023-06-14T07:17:41;21.80;99.90
5554;DHT22;2800;49.528;8.666;2023-06-14T07:20:08;22.20;99.90
5554;DHT22;2800;49.528;8.666;2023-06-14T07:22:37;22.30;99.90
5554;DHT22;2800;49.528;8.666;2023-06-14T07:25:03;22.60;99.90
5554;DHT22;2800;49.528;8.666;2023-06-14T07:27:28;23.00;99.90
5554;DHT22;2800;49.528;8.666;2023-06-14T07:29:54;22.80;99.90
5554;DHT22;2800;49.528;8.666;2023-06-14T07:32:19;23.10;99.90
5554;DHT22;2800;49.528;8.666;2023-06-14T07:34:45;23.00;99.90
5554;DHT22;2800;49.528;8.666;2023-06-14T07:37:11;23.40;99.90
5554;DHT22;2800;49.528;8.666;2023-06-14T07:39:36;23.50;99.90
5554;DHT22;2800;49.528;8.666;2023-06-14T07:42:02;23.30;99.90
5554;DHT22;2800;49.528;8.666;2023-06-14T07:44:30;23.00;99.90
5554;DHT22;2800;49.528;8.666;2023-06-14T07:46:56;22.60;99.90
5554;DHT22;2800;49.528;8.666;2023-06-14T07:49:25;22.80;99.90
5554;DHT22;2800;49.528;8.666;2023-06-14T07:51:51;23.10;99.90
5554;DHT22;2800;49.528;8.666;2023-06-14T07:54:16;23.20;99.90
5554;DHT22;2800;49.528;8.666;2023-06-14T07:56:42;23.70;99.90
5554;DHT22;2800;49.528;8.666;2023-06-14T07:59:08;23.50;99.90
5554;DHT22;2800;49.528;8.666;2023-06-14T08:01:34;23.80;99.90
5554;DHT22;2800;49.528;8.666;2023-06-14T08:04:00;23.90;99.90
5554;DHT22;2800;49.528;8.666;2023-06-14T08:06:26;23.50;99.90
5554;DHT22;2800;49.528;8.666;2023-06-14T08:08:52;24.00;99.90
5554;DHT22;2800;49.528;8.666;2023-06-14T08:11:17;24.50;99.90
5554;DHT22;2800;49.528;8.666;2023-06-14T08:13:43;25.00;99.90
5554;DHT22;2800;49.528;8.666;2023-06-14T08:16:09;24.90;99.90
5554;DHT22;2800;49.528;8.666;2023-06-14T08:18:34;25.10;99.90
5554;DHT22;2800;49.528;8.666;2023-06-14T08:21:00;24.90;99.90
5554;DHT22;2800;49.528;8.666;2023-06-14T08:23:25;24.80;99.90
5554;DHT22;2800;49.528;8.666;2023-06-14T08:25:52;25.10;99.90
5554;DHT22;2800;49.528;8.666;2023-06-14T08:28:18;25.60;99.90
5554;DHT22;2800;49.528;8.666;2023-06-14T08:30:43;25.50;99.90
5554;DHT22;2800;49.528;8.666;2023-06-14T08:33:09;25.90;99.90
5554;DHT22;2800;49.528;8.666;2023-06-14T08:35:34;26.30;99.90
5554;DHT22;2800;49.528;8.666;2023-06-14T08:38:03;26.10;99.90
5554;DHT22;2800;49.528;8.666;2023-06-14T08:40:30;26.30;99.90
5554;DHT22;2800;49.528;8.666;2023-06-14T08:42:56;26.20;99.90
5554;DHT22;2800;49.528;8.666;2023-06-14T08:45:23;26.00;99.90
5554;DHT22;2800;49.528;8.666;2023-06-14T08:47:53;25.70;99.90
5554;DHT22;2800;49.528;8.666;2023-06-14T08:50:24;26.40;99.90
5554;DHT22;2800;49.528;8.666;2023-06-14T08:52:54;26.80;99.90
5554;DHT22;2800;49.528;8.666;2023-06-14T08:55:21;26.60;99.90
5554;DHT22;2800;49.528;8.666;2023-06-14T08:57:51;25.70;99.90
5554;DHT22;2800;49.528;8.666;2023-06-14T09:00:19;26.10;99.90
5554;DHT22;2800;49.528;8.666;2023-06-14T09:02:46;24.60;99.90
5554;DHT22;2800;49.528;8.666;2023-06-14T09:05:12;24.60;99.90
5554;DHT22;2800;49.528;8.666;2023-06-14T09:07:43;24.90;99.90
5554;DHT22;2800;49.528;8.666;2023-06-14T09:10:11;25.30;99.90
5554;DHT22;2800;49.528;8.666;2023-06-14T09:12:37;25.30;99.90
5554;DHT22;2800;49.528;8.666;2023-06-14T09:15:06;25.30;99.90
5554;DHT22;2800;49.528;8.666;2023-06-14T09:17:38;25.90;99.90
5554;DHT22;2800;49.528;8.666;2023-06-14T09:20:04;26.30;99.90
5554;DHT22;2800;49.528;8.666;2023-06-14T09:22:39;27.30;99.90
5554;DHT22;2800;49.528;8.666;2023-06-14T09:25:05;28.10;99.90
5554;DHT22;2800;49.528;8.666;2023-06-14T09:27:31;27.00;99.90
5554;DHT22;2800;49.528;8.666;2023-06-14T09:29:57;26.50;99.90
5554;DHT22;2800;49.528;8.666;2023-06-14T09:32:23;26.20;99.90
5554;DHT22;2800;49.528;8.666;2023-06-14T09:34:48;26.00;99.90
5554;DHT22;2800;49.528;8.666;2023-06-14T09:37:31;26.30;99.90
5554;DHT22;2800;49.528;8.666;2023-06-14T09:39:57;26.90;99.90
5554;DHT22;2800;49.528;8.666;2023-06-14T09:42:23;26.50;99.90
5554;DHT22;2800;49.528;8.666;2023-06-14T09:44:52;27.00;99.90
5554;DHT22;2800;49.528;8.666;2023-06-14T09:47:18;26.70;99.90
5554;DHT22;2800;49.528;8.666;2023-06-14T09:49:44;26.40;99.90
5554;DHT22;2800;49.528;8.666;2023-06-14T09:52:18;25.30;99.90
5554;DHT22;2800;49.528;8.666;2023-06-14T09:54:45;25.90;99.90
5554;DHT22;2800;49.528;8.666;2023-06-14T09:57:22;26.20;99.90
5554;DHT22;2800;49.528;8.666;2023-06-14T09:59:49;26.60;99.90
5554;DHT22;2800;49.528;8.666;2023-06-14T10:02:27;27.30;99.90
5554;DHT22;2800;49.528;8.666;2023-06-14T10:05:03;28.10;99.90
5554;DHT22;2800;49.528;8.666;2023-06-14T10:07:56;28.20;99.90
5554;DHT22;2800;49.528;8.666;2023-06-14T10:10:24;28.70;99.90
5554;DHT22;2800;49.528;8.666;2023-06-14T10:12:50;28.20;99.90
5554;DHT22;2800;49.528;8.666;2023-06-14T10:15:32;27.80;99.90
5554;DHT22;2800;49.528;8.666;2023-06-14T10:21:08;29.00;99.90
5554;DHT22;2800;49.528;8.666;2023-06-14T10:23:44;29.40;99.90
5554;DHT22;2800;49.528;8.666;2023-06-14T10:26:22;29.40;99.90
5554;DHT22;2800;49.528;8.666;2023-06-14T10:29:07;30.00;99.90
5554;DHT22;2800;49.528;8.666;2023-06-14T10:31:44;30.10;99.90
5554;DHT22;2800;49.528;8.666;2023-06-14T10:34:11;29.90;99.90
5554;DHT22;2800;49.528;8.666;2023-06-14T10:36:37;29.90;99.90
5554;DHT22;2800;49.528;8.666;2023-06-14T10:39:05;29.80;99.90
5554;DHT22;2800;49.528;8.666;2023-06-14T10:41:39;29.80;99.90
5554;DHT22;2800;49.528;8.666;2023-06-14T10:46:40;29.50;99.90
5554;DHT22;2800;49.528;8.666;2023-06-14T10:49:11;28.20;99.90
5554;DHT22;2800;49.528;8.666;2023-06-14T10:51:41;28.80;99.90
5554;DHT22;2800;49.528;8.666;2023-06-14T10:54:13;29.90;99.90
5554;DHT22;2800;49.528;8.666;2023-06-14T10:56:49;30.50;99.90
5554;DHT22;2800;49.528;8.666;2023-06-14T10:59:16;29.40;99.90
5554;DHT22;2800;49.528;8.666;2023-06-14T11:04:50;30.30;99.90
5554;DHT22;2800;49.528;8.666;2023-06-14T11:10:23;28.60;99.90
5554;DHT22;2800;49.528;8.666;2023-06-14T11:12:54;28.50;99.90
5554;DHT22;2800;49.528;8.666;2023-06-14T11:15:20;29.20;99.90
5554;DHT22;2800;49.528;8.666;2023-06-14T11:17:52;29.40;99.90
5554;DHT22;2800;49.528;8.666;2023-06-14T11:20:25;28.50;99.90
5554;DHT22;2800;49.528;8.666;2023-06-14T11:22:52;27.80;99.90
5554;DHT22;2800;49.528;8.666;2023-06-14T11:25:18;26.80;99.90
5554;DHT22;2800;49.528;8.666;2023-06-14T11:27:44;27.60;99.90
5554;DHT22;2800;49.528;8.666;2023-06-14T11:30:10;27.40;99.90
5554;DHT22;2800;49.528;8.666;2023-06-14T11:32:37;27.20;99.90
5554;DHT22;2800;49.528;8.666;2023-06-14T11:35:03;28.20;99.90
5554;DHT22;2800;49.528;8.666;2023-06-14T11:37:30;29.00;99.90
5554;DHT22;2800;49.528;8.666;2023-06-14T11:40:00;30.50;99.90
5554;DHT22;2800;49.528;8.666;2023-06-14T11:42:27;30.20;99.90
5554;DHT22;2800;49.528;8.666;2023-06-14T11:44:54;29.20;99.90
5554;DHT22;2800;49.528;8.666;2023-06-14T11:47:20;28.30;99.90
5554;DHT22;2800;49.528;8.666;2023-06-14T11:49:46;27.90;99.90
5554;DHT22;2800;49.528;8.666;2023-06-14T11:52:12;29.20;99.90
5554;DHT22;2800;49.528;8.666;2023-06-14T11:54:38;29.60;99.90
5554;DHT22;2800;49.528;8.666;2023-06-14T11:57:06;30.70;99.90
5554;DHT22;2800;49.528;8.666;2023-06-14T11:59:37;31.00;99.90
5554;DHT22;2800;49.528;8.666;2023-06-14T12:02:03;31.00;99.90
5554;DHT22;2800;49.528;8.666;2023-06-14T12:04:30;31.30;99.90
5554;DHT22;2800;49.528;8.666;2023-06-14T12:06:56;31.80;99.90
5554;DHT22;2800;49.528;8.666;2023-06-14T12:09:23;31.80;99.90
5554;DHT22;2800;49.528;8.666;2023-06-14T12:11:59;31.90;99.90
5554;DHT22;2800;49.528;8.666;2023-06-14T12:14:30;31.20;99.90
5554;DHT22;2800;49.528;8.666;2023-06-14T12:17:05;29.70;99.90
5554;DHT22;2800;49.528;8.666;2023-06-14T12:19:41;28.10;99.90
5554;DHT22;2800;49.528;8.666;2023-06-14T12:22:10;27.70;99.90
5554;DHT22;2800;49.528;8.666;2023-06-14T12:24:35;28.20;99.90
5554;DHT22;2800;49.528;8.666;2023-06-14T12:27:01;28.70;99.90
5554;DHT22;2800;49.528;8.666;2023-06-14T12:29:30;30.00;99.90
5554;DHT22;2800;49.528;8.666;2023-06-14T12:31:56;30.40;99.90
5554;DHT22;2800;49.528;8.666;2023-06-14T12:34:23;30.40;99.90
5554;DHT22;2800;49.528;8.666;2023-06-14T12:36:50;30.20;99.90
5554;DHT22;2800;49.528;8.666;2023-06-14T12:39:16;30.70;99.90
5554;DHT22;2800;49.528;8.666;2023-06-14T12:41:42;30.00;99.90
5554;DHT22;2800;49.528;8.666;2023-06-14T12:44:07;29.00;99.90
5554;DHT22;2800;49.528;8.666;2023-06-14T12:46:34;27.10;99.90
5554;DHT22;2800;49.528;8.666;2023-06-14T12:49:00;26.20;99.90
5554;DHT22;2800;49.528;8.666;2023-06-14T12:51:26;26.50;99.90
5554;DHT22;2800;49.528;8.666;2023-06-14T12:53:51;28.50;99.90
5554;DHT22;2800;49.528;8.666;2023-06-14T12:56:17;30.80;99.90
5554;DHT22;2800;49.528;8.666;2023-06-14T12:58:43;31.10;99.90
5554;DHT22;2800;49.528;8.666;2023-06-14T13:01:09;31.90;99.90
5554;DHT22;2800;49.528;8.666;2023-06-14T13:03:34;30.70;99.90
5554;DHT22;2800;49.528;8.666;2023-06-14T13:06:01;29.50;99.90
5554;DHT22;2800;49.528;8.666;2023-06-14T13:08:27;28.90;99.90
5554;DHT22;2800;49.528;8.666;2023-06-14T13:10:53;28.10;99.90
5554;DHT22;2800;49.528;8.666;2023-06-14T13:13:19;27.80;99.90
5554;DHT22;2800;49.528;8.666;2023-06-14T13:15:44;28.20;99.90
5554;DHT22;2800;49.528;8.666;2023-06-14T13:18:11;28.80;99.90
5554;DHT22;2800;49.528;8.666;2023-06-14T13:20:38;29.30;99.90
5554;DHT22;2800;49.528;8.666;2023-06-14T13:23:05;30.00;99.90
5554;DHT22;2800;49.528;8.666;2023-06-14T13:25:36;31.10;99.90
5554;DHT22;2800;49.528;8.666;2023-06-14T13:28:02;30.70;99.90
5554;DHT22;2800;49.528;8.666;2023-06-14T13:30:27;29.50;99.90
5554;DHT22;2800;49.528;8.666;2023-06-14T13:32:53;28.80;99.90
5554;DHT22;2800;49.528;8.666;2023-06-14T13:35:19;28.40;99.90
5554;DHT22;2800;49.528;8.666;2023-06-14T13:37:45;28.20;99.90
5554;DHT22;2800;49.528;8.666;2023-06-14T13:40:11;27.90;99.90
5554;DHT22;2800;49.528;8.666;2023-06-14T13:42:37;27.70;99.90
5554;DHT22;2800;49.528;8.666;2023-06-14T13:45:03;27.70;99.90
5554;DHT22;2800;49.528;8.666;2023-06-14T13:47:29;27.60;99.90
5554;DHT22;2800;49.528;8.666;2023-06-14T13:49:55;27.60;99.90
5554;DHT22;2800;49.528;8.666;2023-06-14T13:52:21;27.50;99.90
5554;DHT22;2800;49.528;8.666;2023-06-14T13:54:46;28.60;99.90
5554;DHT22;2800;49.528;8.666;2023-06-14T13:57:12;30.40;99.90
5554;DHT22;2800;49.528;8.666;2023-06-14T13:59:39;31.70;99.90
5554;DHT22;2800;49.528;8.666;2023-06-14T14:02:06;32.30;99.90
5554;DHT22;2800;49.528;8.666;2023-06-14T14:04:31;32.80;99.90
5554;DHT22;2800;49.528;8.666;2023-06-14T14:06:57;32.30;99.90
5554;DHT22;2800;49.528;8.666;2023-06-14T14:09:22;31.00;99.90
5554;DHT22;2800;49.528;8.666;2023-06-14T14:11:48;29.90;99.90
5554;DHT22;2800;49.528;8.666;2023-06-14T14:14:14;28.70;99.90
5554;DHT22;2800;49.528;8.666;2023-06-14T14:16:39;28.00;99.90
5554;DHT22;2800;49.528;8.666;2023-06-14T14:19:05;27.60;99.90
5554;DHT22;2800;49.528;8.666;2023-06-14T14:21:32;27.30;99.90
5554;DHT22;2800;49.528;8.666;2023-06-14T14:23:57;27.20;99.90
5554;DHT22;2800;49.528;8.666;2023-06-14T14:26:23;27.00;99.90
5554;DHT22;2800;49.528;8.666;2023-06-14T14:28:49;27.00;99.90
5554;DHT22;2800;49.528;8.666;2023-06-14T14:31:14;26.90;99.90
5554;DHT22;2800;49.528;8.666;2023-06-14T14:33:40;27.70;99.90
5554;DHT22;2800;49.528;8.666;2023-06-14T14:36:06;28.60;99.90
5554;DHT22;2800;49.528;8.666;2023-06-14T14:38:32;29.00;99.90
5554;DHT22;2800;49.528;8.666;2023-06-14T14:40:58;29.60;99.90
5554;DHT22;2800;49.528;8.666;2023-06-14T14:43:23;30.20;99.90
5554;DHT22;2800;49.528;8.666;2023-06-14T14:45:49;30.30;99.90
5554;DHT22;2800;49.528;8.666;2023-06-14T14:48:15;30.80;99.90
5554;DHT22;2800;49.528;8.666;2023-06-14T14:50:40;30.60;99.90
5554;DHT22;2800;49.528;8.666;2023-06-14T14:53:06;30.50;99.90
5554;DHT22;2800;49.528;8.666;2023-06-14T14:55:32;30.70;99.90
5554;DHT22;2800;49.528;8.666;2023-06-14T14:58:00;30.20;99.90
5554;DHT22;2800;49.528;8.666;2023-06-14T15:00:26;29.60;99.90
5554;DHT22;2800;49.528;8.666;2023-06-14T15:02:51;28.50;99.90
5554;DHT22;2800;49.528;8.666;2023-06-14T15:05:17;28.50;99.90
5554;DHT22;2800;49.528;8.666;2023-06-14T15:07:42;29.30;99.90
5554;DHT22;2800;49.528;8.666;2023-06-14T15:10:10;28.60;99.90
5554;DHT22;2800;49.528;8.666;2023-06-14T15:12:35;28.50;99.90
5554;DHT22;2800;49.528;8.666;2023-06-14T15:15:02;28.20;99.90
5554;DHT22;2800;49.528;8.666;2023-06-14T15:17:28;28.00;99.90
5554;DHT22;2800;49.528;8.666;2023-06-14T15:19:54;27.10;99.90
5554;DHT22;2800;49.528;8.666;2023-06-14T15:22:19;26.70;99.90
5554;DHT22;2800;49.528;8.666;2023-06-14T15:24:45;26.70;99.90
5554;DHT22;2800;49.528;8.666;2023-06-14T15:27:13;26.80;99.90
5554;DHT22;2800;49.528;8.666;2023-06-14T15:29:41;26.90;99.90
5554;DHT22;2800;49.528;8.666;2023-06-14T15:32:07;27.00;99.90
5554;DHT22;2800;49.528;8.666;2023-06-14T15:34:33;26.80;99.90
5554;DHT22;2800;49.528;8.666;2023-06-14T15:36:58;26.80;99.90
5554;DHT22;2800;49.528;8.666;2023-06-14T15:39:25;27.50;99.90
5554;DHT22;2800;49.528;8.666;2023-06-14T15:41:52;27.80;99.90
5554;DHT22;2800;49.528;8.666;2023-06-14T15:44:17;27.80;99.90
5554;DHT22;2800;49.528;8.666;2023-06-14T15:46:43;27.60;99.90
5554;DHT22;2800;49.528;8.666;2023-06-14T15:49:09;27.40;99.90
5554;DHT22;2800;49.528;8.666;2023-06-14T15:51:35;27.70;99.90
5554;DHT22;2800;49.528;8.666;2023-06-14T15:54:01;28.00;99.90
5554;DHT22;2800;49.528;8.666;2023-06-14T15:56:27;28.40;99.90
5554;DHT22;2800;49.528;8.666;2023-06-14T15:58:52;28.20;99.90
5554;DHT22;2800;49.528;8.666;2023-06-14T16:01:18;28.50;99.90
5554;DHT22;2800;49.528;8.666;2023-06-14T16:03:43;27.90;99.90
5554;DHT22;2800;49.528;8.666;2023-06-14T16:06:09;27.70;99.90
5554;DHT22;2800;49.528;8.666;2023-06-14T16:08:34;27.30;99.90
5554;DHT22;2800;49.528;8.666;2023-06-14T16:11:00;27.00;99.90
5554;DHT22;2800;49.528;8.666;2023-06-14T16:13:25;26.90;99.90